createdAt,value
2023-04-15T00:04:18.089Z,4.47
2023-04-15T00:10:13.008Z,4.70
2023-04-15T00:21:55.132Z,3.97
2023-04-15T00:33:53.653Z,3.60
2023-04-15T00:39:20.117Z,3.63
2023-04-15T00:44:45.524Z,3.85
2023-04-15T00:50:20.204Z,5.47
2023-04-15T00:56:08.098Z,6.25
2023-04-15T01:01:37.952Z,4.75
2023-04-15T01:07:38.095Z,4.30
2023-04-15T01:13:30.553Z,4.63
2023-04-15T01:19:35.467Z,3.65
2023-04-15T01:31:37.852Z,4.28
2023-04-15T01:43:14.822Z,4.28
2023-04-15T01:49:19.343Z,4.68
2023-04-15T01:55:05.298Z,4.45
2023-04-15T02:00:48.959Z,5.65
2023-04-15T02:06:38.648Z,6.30
2023-04-15T02:12:32.551Z,4.32
2023-04-15T02:18:09.580Z,5.70
2023-04-15T02:23:39.133Z,4.35
2023-04-15T02:29:08.102Z,4.85
2023-04-15T02:35:08.550Z,5.03
2023-04-15T02:40:35.750Z,4.25
2023-04-15T02:46:23.866Z,5.20
2023-04-15T02:52:15.811Z,4.78
2023-04-15T03:03:27.897Z,4.07
2023-04-15T03:09:08.759Z,5.05
2023-04-15T03:15:02.864Z,4.53
2023-04-15T03:20:37.774Z,3.03
2023-04-15T03:32:54.561Z,3.17
2023-04-15T03:38:26.051Z,5.68
2023-04-15T03:49:58.069Z,4.85
2023-04-15T03:55:44.895Z,6.53
2023-04-15T04:01:50.911Z,4.20
2023-04-15T04:07:32.579Z,5.55
2023-04-15T04:24:28.978Z,4.35
2023-04-15T04:30:00.807Z,6.43
2023-04-15T04:46:57.669Z,4.13
2023-04-15T04:58:27.951Z,2.78
2023-04-15T05:03:45.047Z,5.18
2023-04-15T05:09:27.752Z,4.18
2023-04-15T05:14:52.035Z,10.40
2023-04-15T05:20:50.224Z,4.07
2023-04-15T05:26:46.922Z,4.28
2023-04-15T05:32:17.118Z,3.00
2023-04-15T05:37:39.739Z,3.95
2023-04-15T05:43:03.461Z,4.70
2023-04-15T05:55:09.046Z,3.97
2023-04-15T06:01:10.896Z,7.05
2023-04-15T06:12:48.328Z,4.72
2023-04-15T06:18:10.029Z,4.75
2023-04-15T06:29:46.177Z,7.45
2023-04-15T06:35:11.818Z,34.97
2023-04-15T06:40:49.104Z,17.75
2023-04-15T06:46:51.027Z,3.63
2023-04-15T06:52:13.392Z,5.45
2023-04-15T06:57:40.461Z,3.05
2023-04-15T07:03:44.358Z,3.58
2023-04-15T07:09:03.799Z,6.70
2023-04-15T07:14:32.867Z,3.58
2023-04-15T07:32:50.825Z,5.40
2023-04-15T07:38:10.926Z,6.90
2023-04-15T07:43:56.623Z,4.03
2023-04-15T07:49:28.320Z,4.18
2023-04-15T07:55:00.409Z,7.03
2023-04-15T08:06:29.132Z,4.45
2023-04-15T08:12:09.692Z,5.45
2023-04-15T08:23:24.688Z,4.88
2023-04-15T08:28:39.705Z,2.45
2023-04-15T08:39:57.211Z,5.35
2023-04-15T08:51:26.925Z,4.88
2023-04-15T08:56:46.480Z,4.68
2023-04-15T09:02:09.539Z,9.23
2023-04-15T09:19:15.567Z,5.47
2023-04-15T09:25:16.589Z,4.43
2023-04-15T09:36:24.422Z,4.60
2023-04-15T09:48:56.803Z,2.75
2023-04-15T09:54:13.096Z,3.85
2023-04-15T09:59:36.647Z,3.95
2023-04-15T10:05:02.032Z,4.72
2023-04-15T10:10:50.425Z,5.57
2023-04-15T10:22:18.009Z,4.88
2023-04-15T10:33:24.897Z,5.70
2023-04-15T10:39:17.717Z,4.90
2023-04-15T10:56:00.828Z,5.53
2023-04-15T11:01:30.401Z,6.57
2023-04-15T11:07:15.233Z,5.28
2023-04-15T11:18:34.442Z,5.38
2023-04-15T11:40:48.731Z,3.85
2023-04-15T11:57:29.605Z,6.70
2023-04-15T12:02:58.137Z,6.25
2023-04-15T12:08:51.913Z,4.28
2023-04-15T12:14:16.062Z,4.43
2023-04-15T12:19:57.477Z,2.72
2023-04-15T12:26:05.030Z,7.18
2023-04-15T12:31:36.427Z,10.90
2023-04-15T12:37:25.562Z,4.93
2023-04-15T12:43:11.074Z,6.00
2023-04-15T12:49:31.494Z,7.90
2023-04-15T12:54:54.898Z,4.22
2023-04-15T13:00:33.745Z,5.40
2023-04-15T13:05:49.429Z,4.20
2023-04-15T13:11:44.395Z,7.25
2023-04-15T13:18:14.888Z,4.22
2023-04-15T13:23:25.044Z,3.78
2023-04-15T13:28:42.853Z,5.38
2023-04-15T13:34:21.107Z,3.58
2023-04-15T13:40:08.885Z,8.73
2023-04-15T13:51:51.738Z,5.13
2023-04-15T13:57:58.790Z,5.57
2023-04-15T14:21:28.352Z,7.47
2023-04-15T14:32:17.407Z,4.00
2023-04-15T14:37:37.838Z,5.75
2023-04-15T14:43:17.789Z,4.60
2023-04-15T14:48:31.328Z,9.25
2023-04-15T14:53:40.071Z,4.60
2023-04-15T14:58:49.325Z,6.20
2023-04-15T15:03:56.402Z,6.40
2023-04-15T15:09:07.083Z,3.70
2023-04-15T15:14:15.416Z,5.07
2023-04-15T15:19:33.830Z,6.28
2023-04-15T15:24:43.386Z,5.38
2023-04-15T15:30:00.132Z,4.13
2023-04-15T15:35:14.596Z,6.13
2023-04-15T15:40:22.765Z,6.57
2023-04-15T15:45:33.002Z,9.38
2023-04-15T15:50:39.936Z,4.50
2023-04-15T15:55:48.514Z,4.50
2023-04-15T16:01:01.692Z,12.65
2023-04-15T16:06:12.968Z,14.60
2023-04-15T16:11:28.740Z,10.68
2023-04-15T16:16:41.347Z,9.25
2023-04-15T16:21:53.541Z,6.90
2023-04-15T16:27:04.761Z,5.65
2023-04-15T16:32:17.574Z,5.93
2023-04-15T16:49:10.121Z,6.63
2023-04-15T16:54:55.823Z,4.22
2023-04-15T17:06:23.152Z,4.65
2023-04-15T17:11:52.902Z,9.27
2023-04-15T17:17:56.128Z,4.72
2023-04-15T17:23:18.964Z,9.40
2023-04-15T17:29:21.765Z,8.77
2023-04-15T17:40:43.635Z,8.13
2023-04-15T17:46:36.980Z,5.25
2023-04-15T17:52:10.120Z,4.45
2023-04-15T17:58:00.562Z,5.07
2023-04-15T18:03:45.326Z,5.10
2023-04-15T18:15:46.812Z,5.13
2023-04-15T18:21:31.295Z,7.22
2023-04-15T18:27:42.378Z,8.65
2023-04-15T18:33:23.079Z,8.52
2023-04-15T18:44:58.996Z,7.43
2023-04-15T19:07:49.075Z,9.98
2023-04-15T19:13:30.753Z,7.60
2023-04-15T19:19:18.696Z,13.23
2023-04-15T19:24:42.497Z,9.13
2023-04-15T19:30:21.043Z,16.98
2023-04-15T19:36:26.922Z,12.35
2023-04-15T19:42:16.321Z,12.13
2023-04-15T19:53:46.376Z,17.52
2023-04-15T20:05:50.270Z,16.67
2023-04-15T20:11:21.722Z,14.07
2023-04-15T20:17:02.172Z,16.48
2023-04-15T20:22:22.584Z,16.75
2023-04-15T20:27:44.593Z,14.93
2023-04-15T20:33:30.344Z,13.55
2023-04-15T20:45:29.761Z,15.52
2023-04-15T20:56:22.636Z,14.35
2023-04-15T21:02:01.282Z,17.50
2023-04-15T21:13:53.628Z,16.92
2023-04-15T21:25:07.705Z,16.55
2023-04-15T21:30:25.314Z,9.90
2023-04-15T21:35:53.257Z,7.47
2023-04-15T21:41:19.096Z,4.00
2023-04-15T21:46:58.931Z,4.85
2023-04-15T22:15:15.207Z,10.07
2023-04-15T22:27:07.052Z,14.07
2023-04-15T22:32:24.910Z,14.32
2023-04-15T22:49:20.919Z,8.65
2023-04-15T22:55:04.915Z,7.85
2023-04-15T23:01:13.414Z,8.27
2023-04-15T23:06:33.366Z,9.85
2023-04-15T23:12:01.008Z,12.25
2023-04-15T23:17:57.804Z,9.90
2023-04-15T23:41:35.251Z,10.50
2023-04-15T23:47:31.371Z,7.95
2023-04-15T23:52:52.738Z,8.77
